createdAt,value
2023-04-10T00:01:12.229Z,101303.09
2023-04-10T00:03:39.274Z,101293.34
2023-04-10T00:06:07.755Z,101288.03
2023-04-10T00:08:34.692Z,101283.00
2023-04-10T00:11:01.647Z,101283.00
2023-04-10T00:13:28.586Z,101278.53
2023-04-10T00:15:55.629Z,101267.34
2023-04-10T00:18:22.569Z,101270.16
2023-04-10T00:20:49.543Z,101266.25
2023-04-10T00:23:16.431Z,101257.88
2023-04-10T00:25:43.345Z,101257.03
2023-04-10T00:28:10.306Z,101255.34
2023-04-10T00:30:37.377Z,101257.56
2023-04-10T00:33:04.438Z,101257.28
2023-04-10T00:35:31.492Z,101258.41
2023-04-10T00:37:58.436Z,101269.59
2023-04-10T00:40:25.488Z,101266.78
2023-04-10T00:42:52.440Z,101264.00
2023-04-10T00:45:19.543Z,101259.53
2023-04-10T00:47:46.546Z,101249.19
2023-04-10T00:50:13.734Z,101250.59
2023-04-10T00:52:40.752Z,101248.06
2023-04-10T00:55:08.083Z,101242.22
2023-04-10T00:57:35.201Z,101234.94
2023-04-10T01:00:02.182Z,101223.78
2023-04-10T01:02:29.285Z,101224.63
2023-04-10T01:04:56.794Z,101219.03
2023-04-10T01:07:25.087Z,101208.41
2023-04-10T01:09:58.308Z,101215.41
2023-04-10T01:12:28.282Z,101213.44
2023-04-10T01:14:58.246Z,101207.28
2023-04-10T01:17:28.258Z,101201.16
2023-04-10T01:20:00.794Z,101201.44
2023-04-10T01:22:34.897Z,101203.66
2023-04-10T01:25:09.220Z,101204.81
2023-04-10T01:27:43.919Z,101202.56
2023-04-10T01:30:13.074Z,101193.63
2023-04-10T01:32:40.800Z,101197.22
2023-04-10T01:35:09.008Z,101177.97
2023-04-10T01:37:41.281Z,101185.53
2023-04-10T01:40:09.753Z,101184.09
2023-04-10T01:42:40.390Z,101192.22
2023-04-10T01:45:08.623Z,101193.31
2023-04-10T01:47:35.646Z,101182.16
2023-04-10T01:50:04.031Z,101177.41
2023-04-10T01:52:31.800Z,101184.69
2023-04-10T01:54:58.836Z,101184.09
2023-04-10T01:57:26.294Z,101172.41
2023-04-10T01:59:53.294Z,101162.34
2023-04-10T02:02:20.281Z,101167.09
2023-04-10T02:04:52.019Z,101157.03
2023-04-10T02:07:23.565Z,101158.13
2023-04-10T02:09:57.775Z,101154.78
2023-04-10T02:12:29.238Z,101164.28
2023-04-10T02:14:56.573Z,101164.28
2023-04-10T02:17:26.754Z,101157.84
2023-04-10T02:19:54.391Z,101162.34
2023-04-10T02:22:22.450Z,101152.84
2023-04-10T02:24:49.838Z,101149.22
2023-04-10T02:27:16.946Z,101148.09
2023-04-10T02:29:44.047Z,101146.69
2023-04-10T02:32:11.467Z,101144.16
2023-04-10T02:34:38.339Z,101145.00
2023-04-10T02:37:05.396Z,101143.63
2023-04-10T02:39:32.311Z,101136.94
2023-04-10T02:41:59.300Z,101130.50
2023-04-10T02:44:26.430Z,101131.34
2023-04-10T02:46:53.416Z,101122.38
2023-04-10T02:49:20.366Z,101124.59
2023-04-10T02:51:47.263Z,101120.97
2023-04-10T02:54:14.333Z,101117.06
2023-04-10T02:56:41.305Z,101113.75
2023-04-10T02:59:08.422Z,101112.91
2023-04-10T03:01:35.416Z,101126.56
2023-04-10T03:04:04.398Z,101114.59
2023-04-10T03:06:31.692Z,101113.75
2023-04-10T03:08:58.627Z,101116.81
2023-04-10T03:11:25.635Z,101109.28
2023-04-10T03:13:52.653Z,101113.75
2023-04-10T03:16:19.871Z,101108.16
2023-04-10T03:18:46.933Z,101110.09
2023-04-10T03:21:13.915Z,101105.63
2023-04-10T03:23:40.938Z,101113.16
2023-04-10T03:26:07.868Z,101101.16
2023-04-10T03:28:36.937Z,101097.25
2023-04-10T03:31:04.447Z,101097.25
2023-04-10T03:33:31.446Z,101086.91
2023-04-10T03:35:58.516Z,101090.00
2023-04-10T03:38:25.676Z,101088.03
2023-04-10T03:40:52.580Z,101089.44
2023-04-10T03:43:19.606Z,101084.97
2023-04-10T03:45:47.577Z,101074.63
2023-04-10T03:48:14.496Z,101085.25
2023-04-10T03:50:41.461Z,101074.91
2023-04-10T03:53:08.450Z,101067.38
2023-04-10T03:55:35.408Z,101058.44
2023-04-10T03:58:02.390Z,101052.56
2023-04-10T04:00:29.408Z,101045.31
2023-04-10T04:02:56.701Z,101046.72
2023-04-10T04:05:23.732Z,101041.41
2023-04-10T04:07:50.926Z,101040.28
2023-04-10T04:10:17.948Z,101036.09
2023-04-10T04:12:44.881Z,101036.38
2023-04-10T04:15:11.793Z,101031.34
2023-04-10T04:17:38.727Z,101037.75
2023-04-10T04:20:06.448Z,101039.72
2023-04-10T04:22:33.413Z,101037.75
2023-04-10T04:25:00.320Z,101036.09
2023-04-10T04:27:27.275Z,101031.66
2023-04-10T04:29:54.237Z,101029.38
2023-04-10T04:32:21.609Z,101031.91
2023-04-10T04:34:48.632Z,101031.66
2023-04-10T04:37:15.735Z,101032.19
2023-04-10T04:39:42.642Z,101018.53
2023-04-10T04:42:09.560Z,101014.88
2023-04-10T04:44:36.943Z,101014.91
2023-04-10T04:47:03.899Z,101017.13
2023-04-10T04:49:30.867Z,101004.84
2023-04-10T04:51:57.730Z,101007.06
2023-04-10T04:54:24.741Z,101001.78
2023-04-10T04:56:51.696Z,100999.00
2023-04-10T04:59:18.716Z,100997.00
2023-04-10T05:01:45.797Z,100994.50
2023-04-10T05:04:13.031Z,100998.69
2023-04-10T05:06:40.087Z,100993.66
2023-04-10T05:09:07.077Z,100990.88
2023-04-10T05:11:34.077Z,100987.25
2023-04-10T05:14:01.041Z,100994.22
2023-04-10T05:16:28.037Z,101000.09
2023-04-10T05:18:55.590Z,100980.25
2023-04-10T05:21:22.888Z,100984.72
2023-04-10T05:23:49.833Z,100983.59
2023-04-10T05:26:16.924Z,100964.06
2023-04-10T05:28:43.869Z,100967.72
2023-04-10T05:31:11.060Z,100955.97
2023-04-10T05:33:38.096Z,100961.28
2023-04-10T05:36:05.402Z,100949.00
2023-04-10T05:38:32.449Z,100940.91
2023-04-10T05:40:59.483Z,100951.22
2023-04-10T05:43:26.452Z,100942.84
2023-04-10T05:45:53.441Z,100952.38
2023-04-10T05:48:20.344Z,100937.81
2023-04-10T05:50:47.328Z,100932.53
2023-04-10T05:53:15.095Z,100926.94
2023-04-10T05:55:42.056Z,100923.31
2023-04-10T05:58:09.062Z,100917.19
2023-04-10T06:00:36.344Z,100916.31
2023-04-10T06:03:03.905Z,100914.38
2023-04-10T06:05:31.016Z,100914.09
2023-04-10T06:07:58.607Z,100902.91
2023-04-10T06:10:25.731Z,100903.50
2023-04-10T06:12:52.653Z,100895.69
2023-04-10T06:15:20.171Z,100888.69
2023-04-10T06:17:47.159Z,100893.19
2023-04-10T06:20:14.145Z,100892.31
2023-04-10T06:22:41.171Z,100885.38
2023-04-10T06:25:08.532Z,100872.22
2023-04-10T06:27:36.599Z,100872.50
2023-04-10T06:30:03.818Z,100873.03
2023-04-10T06:32:30.980Z,100866.63
2023-04-10T06:34:58.122Z,100866.34
2023-04-10T06:37:28.267Z,100874.47
2023-04-10T06:40:02.360Z,100874.75
2023-04-10T06:42:29.346Z,100883.97
2023-04-10T06:44:56.348Z,100875.88
2023-04-10T06:47:23.410Z,100870.00
2023-04-10T06:49:50.408Z,100871.94
2023-04-10T06:52:17.585Z,100866.69
2023-04-10T06:54:44.622Z,100871.13
2023-04-10T06:57:11.804Z,100861.38
2023-04-10T06:59:38.795Z,100868.31
2023-04-10T07:02:05.862Z,100859.94
2023-04-10T07:04:32.863Z,100859.09
2023-04-10T07:06:59.927Z,100853.25
2023-04-10T07:09:27.032Z,100858.00
2023-04-10T07:11:54.022Z,100853.25
2023-04-10T07:14:21.061Z,100840.72
2023-04-10T07:16:48.772Z,100846.81
2023-04-10T07:19:16.310Z,100835.13
2023-04-10T07:21:43.267Z,100836.25
2023-04-10T07:24:10.322Z,100844.34
2023-04-10T07:26:37.227Z,100838.75
2023-04-10T07:29:04.161Z,100829.81
2023-04-10T07:31:31.208Z,100829.53
2023-04-10T07:33:58.217Z,100827.03
2023-04-10T07:36:25.164Z,100816.97
2023-04-10T07:38:52.321Z,100809.16
2023-04-10T07:41:19.251Z,100805.81
2023-04-10T07:43:46.881Z,100806.38
2023-04-10T07:46:13.915Z,100806.66
2023-04-10T07:48:40.820Z,100798.84
2023-04-10T07:51:10.072Z,100790.75
2023-04-10T07:53:37.428Z,100789.06
2023-04-10T07:56:04.681Z,100792.44
2023-04-10T07:58:32.262Z,100769.84
2023-04-10T08:00:59.248Z,100769.53
2023-04-10T08:03:26.953Z,100763.66
2023-04-10T08:05:53.949Z,100763.41
2023-04-10T08:08:20.938Z,100757.81
2023-04-10T08:10:47.843Z,100749.44
2023-04-10T08:13:14.834Z,100737.72
2023-04-10T08:15:41.808Z,100748.91
2023-04-10T08:18:08.846Z,100743.03
2023-04-10T08:20:37.348Z,100732.16
2023-04-10T08:23:19.210Z,100733.25
2023-04-10T08:25:47.650Z,100716.22
2023-04-10T08:28:14.689Z,100716.22
2023-04-10T08:30:41.667Z,100714.56
2023-04-10T08:33:08.621Z,100717.06
2023-04-10T08:35:35.563Z,100720.13
2023-04-10T08:38:13.299Z,100717.34
2023-04-10T08:40:41.386Z,100703.38
2023-04-10T08:43:08.323Z,100710.94
2023-04-10T08:45:35.398Z,100699.47
2023-04-10T08:48:03.254Z,100702.28
2023-04-10T08:50:31.824Z,100688.59
2023-04-10T08:53:00.508Z,100681.91
2023-04-10T08:55:27.666Z,100681.06
2023-04-10T08:58:01.314Z,100672.16
2023-04-10T09:00:29.288Z,100668.22
2023-04-10T09:02:58.873Z,100661.50
2023-04-10T09:05:27.575Z,100671.56
2023-04-10T09:07:54.588Z,100668.78
2023-04-10T09:10:21.663Z,100663.78
2023-04-10T09:12:49.374Z,100664.91
2023-04-10T09:15:17.321Z,100645.66
2023-04-10T09:17:47.428Z,100657.38
2023-04-10T09:20:17.515Z,100649.28
2023-04-10T09:22:44.500Z,100654.84
2023-04-10T09:25:28.487Z,100646.47
2023-04-10T09:27:58.565Z,100640.63
2023-04-10T09:30:33.723Z,100635.31
2023-04-10T09:33:02.051Z,100634.19
2023-04-10T09:35:33.540Z,100632.53
2023-04-10T09:38:00.684Z,100642.03
2023-04-10T09:40:27.658Z,100626.09
2023-04-10T09:42:56.520Z,100641.75
2023-04-10T09:45:23.594Z,100628.06
2023-04-10T09:47:53.621Z,100622.19
2023-04-10T09:50:37.786Z,100625.28
2023-04-10T09:53:06.812Z,100620.84
2023-04-10T09:55:35.459Z,100620.28
2023-04-10T09:58:04.123Z,100623.63
2023-04-10T10:00:31.362Z,100625.28
2023-04-10T10:03:00.112Z,100625.59
2023-04-10T10:05:30.881Z,100621.66
2023-04-10T10:07:58.561Z,100615.25
2023-04-10T10:10:26.431Z,100612.16
2023-04-10T10:12:57.694Z,100612.97
2023-04-10T10:15:27.983Z,100608.53
2023-04-10T10:18:02.984Z,100602.66
2023-04-10T10:20:32.885Z,100612.16
2023-04-10T10:23:02.904Z,100595.41
2023-04-10T10:25:31.457Z,100596.53
2023-04-10T10:28:00.770Z,100592.59
2023-04-10T10:30:30.533Z,100585.91
2023-04-10T10:32:59.485Z,100578.66
2023-04-10T10:35:29.856Z,100571.41
2023-04-10T10:37:59.048Z,100548.25
2023-04-10T10:40:30.649Z,100547.66
2023-04-10T10:43:00.666Z,100550.75
2023-04-10T10:45:30.692Z,100560.50
2023-04-10T10:47:57.834Z,100551.56
2023-04-10T10:50:25.108Z,100553.75
2023-04-10T10:52:54.512Z,100554.38
2023-04-10T10:55:23.509Z,100545.47
2023-04-10T10:57:53.538Z,100540.41
2023-04-10T11:00:21.573Z,100547.94
2023-04-10T11:02:52.058Z,100532.31
2023-04-10T11:05:39.238Z,100536.50
2023-04-10T11:08:06.835Z,100520.59
2023-04-10T11:10:42.731Z,100525.34
2023-04-10T11:13:12.737Z,100522.53
2023-04-10T11:15:43.745Z,100524.22
2023-04-10T11:18:11.103Z,100521.41
2023-04-10T11:20:57.958Z,100523.38
2023-04-10T11:23:24.982Z,100527.53
2023-04-10T11:25:53.255Z,100526.69
2023-04-10T11:28:23.274Z,100513.03
2023-04-10T11:30:50.507Z,100520.25
2023-04-10T11:33:18.407Z,100523.59
2023-04-10T11:35:46.965Z,100539.81
2023-04-10T11:38:16.550Z,100535.38
2023-04-10T11:40:46.675Z,100536.22
2023-04-10T11:43:15.297Z,100518.31
2023-04-10T11:45:42.574Z,100514.41
2023-04-10T11:48:10.186Z,100519.16
2023-04-10T11:50:38.048Z,100502.13
2023-04-10T11:53:18.290Z,100500.44
2023-04-10T11:55:45.331Z,100513.78
2023-04-10T11:58:15.375Z,100497.38
2023-04-10T12:00:46.176Z,100491.19
2023-04-10T12:03:13.381Z,100493.69
2023-04-10T12:05:43.723Z,100478.59
2023-04-10T12:08:10.929Z,100490.50
2023-04-10T12:10:41.135Z,100480.41
2023-04-10T12:13:08.223Z,100483.47
2023-04-10T12:15:35.950Z,100469.19
2023-04-10T12:18:03.089Z,100481.19
2023-04-10T12:20:30.308Z,100477.44
2023-04-10T12:23:01.740Z,100471.22
2023-04-10T12:25:28.815Z,100478.47
2023-04-10T12:27:56.039Z,100473.50
2023-04-10T12:30:23.231Z,100468.44
2023-04-10T12:32:52.906Z,100470.72
2023-04-10T12:35:22.052Z,100500.59
2023-04-10T12:37:50.431Z,100518.47
2023-04-10T12:40:17.948Z,100540.00
2023-04-10T12:42:45.111Z,100527.75
2023-04-10T12:45:14.970Z,100518.31
2023-04-10T12:47:45.930Z,100497.41
2023-04-10T12:50:15.047Z,100486.81
2023-04-10T12:52:44.044Z,100500.22
2023-04-10T12:55:12.221Z,100501.94
2023-04-10T12:57:39.828Z,100519.50
2023-04-10T13:00:07.564Z,100479.88
2023-04-10T13:02:34.665Z,100481.00
2023-04-10T13:05:02.329Z,100470.44
2023-04-10T13:07:29.363Z,100486.59
2023-04-10T13:09:56.529Z,100478.22
2023-04-10T13:12:24.293Z,100476.81
2023-04-10T13:14:51.710Z,100475.38
2023-04-10T13:17:19.164Z,100483.75
2023-04-10T13:19:46.391Z,100480.34
2023-04-10T13:22:13.763Z,100461.63
2023-04-10T13:24:41.279Z,100466.38
2023-04-10T13:27:10.013Z,100468.13
2023-04-10T13:29:38.915Z,100465.66
2023-04-10T13:32:07.721Z,100459.97
2023-04-10T13:34:35.624Z,100464.19
2023-04-10T13:37:03.544Z,100449.94
2023-04-10T13:39:32.125Z,100450.78
2023-04-10T13:41:59.980Z,100451.00
2023-04-10T13:44:27.232Z,100454.03
2023-04-10T13:46:55.088Z,100444.53
2023-04-10T13:49:22.578Z,100454.56
2023-04-10T13:51:49.941Z,100454.25
2023-04-10T13:54:17.849Z,100462.94
2023-04-10T13:56:46.811Z,100463.22
2023-04-10T13:59:14.444Z,100455.75
2023-04-10T14:01:41.575Z,100452.28
2023-04-10T14:04:09.172Z,100454.25
2023-04-10T14:06:36.512Z,100450.34
2023-04-10T14:09:03.783Z,100452.84
2023-04-10T14:11:31.005Z,100441.66
2023-04-10T14:13:58.261Z,100441.94
2023-04-10T14:16:26.039Z,100439.44
2023-04-10T14:18:53.358Z,100441.41
2023-04-10T14:21:21.952Z,100456.75
2023-04-10T14:23:49.068Z,100427.16
2023-04-10T14:26:16.351Z,100434.13
2023-04-10T14:28:44.132Z,100427.91
2023-04-10T14:31:13.046Z,100425.13
2023-04-10T14:33:40.310Z,100418.72
2023-04-10T14:36:07.609Z,100410.88
2023-04-10T14:38:37.146Z,100429.28
2023-04-10T14:41:04.493Z,100440.47
2023-04-10T14:43:31.629Z,100432.94
2023-04-10T14:46:00.608Z,100440.47
2023-04-10T14:48:27.801Z,100439.34
2023-04-10T14:50:57.194Z,100442.13
2023-04-10T14:53:24.814Z,100441.31
2023-04-10T14:55:52.180Z,100457.22
2023-04-10T14:58:19.458Z,100453.59
2023-04-10T15:00:46.695Z,100461.44
2023-04-10T15:03:14.128Z,100453.88
2023-04-10T15:05:41.466Z,100457.22
2023-04-10T15:08:08.715Z,100472.03
2023-04-10T15:10:35.987Z,100474.25
2023-04-10T15:13:03.192Z,100483.44
2023-04-10T15:15:30.687Z,100491.00
2023-04-10T15:17:58.483Z,100454.69
2023-04-10T15:20:25.809Z,100470.28
2023-04-10T15:22:53.274Z,100456.66
2023-04-10T15:25:21.815Z,100457.16
2023-04-10T15:27:49.162Z,100468.66
2023-04-10T15:30:17.904Z,100461.69
2023-04-10T15:32:45.319Z,100461.69
2023-04-10T15:35:12.532Z,100468.66
2023-04-10T15:37:39.795Z,100462.53
2023-04-10T15:40:07.437Z,100452.41
2023-04-10T15:42:35.387Z,100450.75
2023-04-10T15:45:03.175Z,100445.41
2023-04-10T15:47:30.861Z,100442.06
2023-04-10T15:49:58.332Z,100443.75
2023-04-10T15:52:26.186Z,100440.94
2023-04-10T15:54:53.624Z,100433.41
2023-04-10T15:57:21.189Z,100444.56
2023-04-10T15:59:51.877Z,100437.59
2023-04-10T16:02:19.134Z,100443.41
2023-04-10T16:04:46.388Z,100441.47
2023-04-10T16:07:13.734Z,100434.81
2023-04-10T16:09:41.343Z,100435.34
2023-04-10T16:12:08.912Z,100424.94
2023-04-10T16:14:36.016Z,100443.97
2023-04-10T16:17:03.155Z,100448.72
2023-04-10T16:19:31.438Z,100439.50
2023-04-10T16:21:58.667Z,100449.53
2023-04-10T16:24:25.891Z,100464.56
2023-04-10T16:26:54.633Z,100454.84
2023-04-10T16:29:22.086Z,100454.00
2023-04-10T16:31:51.650Z,100442.50
2023-04-10T16:34:18.900Z,100461.25
2023-04-10T16:36:45.992Z,100452.03
2023-04-10T16:39:13.112Z,100442.50
2023-04-10T16:42:15.208Z,100430.81
2023-04-10T16:44:30.102Z,100423.56
2023-04-10T16:46:57.498Z,100428.31
2023-04-10T16:49:25.278Z,100436.47
2023-04-10T16:51:52.756Z,100435.94
2023-04-10T16:54:20.000Z,100423.34
2023-04-10T16:56:47.182Z,100423.97
2023-04-10T16:59:14.264Z,100432.34
2023-04-10T17:01:41.429Z,100425.94
2023-04-10T17:04:09.635Z,100423.41
2023-04-10T17:06:36.884Z,100423.72
2023-04-10T17:09:04.016Z,100435.72
2023-04-10T17:11:31.166Z,100447.72
2023-04-10T17:13:58.136Z,100443.25
2023-04-10T17:16:25.187Z,100460.84
2023-04-10T17:18:52.602Z,100458.06
2023-04-10T17:21:20.005Z,100457.53
2023-04-10T17:23:47.186Z,100469.81
2023-04-10T17:26:15.097Z,100479.59
2023-04-10T17:28:45.487Z,100464.84
2023-04-10T17:31:14.256Z,100501.16
2023-04-10T17:33:42.471Z,100475.19
2023-04-10T17:36:10.488Z,100483.00
2023-04-10T17:38:38.242Z,100480.22
2023-04-10T17:41:06.042Z,100491.09
2023-04-10T17:43:33.950Z,100493.66
2023-04-10T17:46:01.314Z,100505.34
2023-04-10T17:48:29.133Z,100505.13
2023-04-10T17:50:56.206Z,100505.75
2023-04-10T17:53:23.320Z,100506.25
2023-04-10T17:55:50.298Z,100502.63
2023-04-10T17:58:17.256Z,100504.34
2023-04-10T18:00:44.325Z,100525.56
2023-04-10T18:03:11.687Z,100512.97
2023-04-10T18:05:40.175Z,100519.44
2023-04-10T18:08:08.399Z,100533.13
2023-04-10T18:10:35.757Z,100522.84
2023-04-10T18:13:02.793Z,100534.84
2023-04-10T18:15:33.367Z,100534.56
2023-04-10T18:18:00.604Z,100528.97
2023-04-10T18:20:27.826Z,100537.34
2023-04-10T18:22:55.397Z,100542.94
2023-04-10T18:25:22.640Z,100543.75
2023-04-10T18:28:04.459Z,100548.25
2023-04-10T18:30:39.387Z,100557.78
2023-04-10T18:33:10.764Z,100543.00
2023-04-10T18:35:38.687Z,100558.91
2023-04-10T18:38:05.966Z,100543.81
2023-04-10T18:40:35.126Z,100546.91
2023-04-10T18:43:02.150Z,100565.31
2023-04-10T18:45:29.467Z,100569.25
2023-04-10T18:47:56.540Z,100569.53
2023-04-10T18:50:23.578Z,100574.88
2023-04-10T18:52:50.676Z,100588.84
2023-04-10T18:55:19.284Z,100582.69
2023-04-10T18:57:46.416Z,100595.25
2023-04-10T19:00:14.063Z,100594.69
2023-04-10T19:02:41.339Z,100590.50
2023-04-10T19:05:09.747Z,100589.97
2023-04-10T19:07:37.154Z,100583.84
2023-04-10T19:10:04.628Z,100602.25
2023-04-10T19:12:34.424Z,100597.25
2023-04-10T19:15:01.797Z,100599.22
2023-04-10T19:17:28.965Z,100607.81
2023-04-10T19:19:57.408Z,100615.41
2023-04-10T19:22:24.743Z,100612.34
2023-04-10T19:24:51.833Z,100619.88
2023-04-10T19:27:18.949Z,100624.06
2023-04-10T19:29:46.090Z,100622.38
2023-04-10T19:32:13.626Z,100626.31
2023-04-10T19:34:40.817Z,100627.97
2023-04-10T19:37:08.035Z,100632.47
2023-04-10T19:39:35.203Z,100628.84
2023-04-10T19:42:03.637Z,100637.50
2023-04-10T19:44:30.759Z,100633.91
2023-04-10T19:46:57.937Z,100638.34
2023-04-10T19:49:26.223Z,100630.28
2023-04-10T19:51:54.994Z,100639.22
2023-04-10T19:54:22.040Z,100642.56
2023-04-10T19:56:49.181Z,100643.69
2023-04-10T19:59:16.308Z,100663.22
2023-04-10T20:01:43.489Z,100660.19
2023-04-10T20:04:10.710Z,100670.47
2023-04-10T20:06:38.055Z,100671.59
2023-04-10T20:09:05.394Z,100671.09
2023-04-10T20:11:32.730Z,100673.31
2023-04-10T20:13:59.883Z,100673.03
2023-04-10T20:16:27.254Z,100681.13
2023-04-10T20:18:55.233Z,100691.19
2023-04-10T20:21:22.678Z,100696.75
2023-04-10T20:23:49.906Z,100696.53
2023-04-10T20:26:17.661Z,100709.34
2023-04-10T20:28:44.935Z,100706.56
2023-04-10T20:31:12.554Z,100720.53
2023-04-10T20:33:40.018Z,100714.38
2023-04-10T20:36:08.312Z,100712.47
2023-04-10T20:38:35.494Z,100727.25
2023-04-10T20:41:02.742Z,100755.72
2023-04-10T20:43:30.011Z,100807.91
2023-04-10T20:45:57.256Z,100782.78
2023-04-10T20:48:24.466Z,100768.84
2023-04-10T20:50:52.159Z,100759.91
2023-04-10T20:53:19.276Z,100758.78
2023-04-10T20:55:46.621Z,100759.38
2023-04-10T20:58:13.661Z,100733.69
2023-04-10T21:00:41.474Z,100725.34
2023-04-10T21:03:08.697Z,100718.03
2023-04-10T21:05:39.365Z,100723.63
2023-04-10T21:08:06.484Z,100733.94
2023-04-10T21:10:33.472Z,100744.88
2023-04-10T21:13:00.741Z,100756.88
2023-04-10T21:15:27.925Z,100765.84
2023-04-10T21:17:55.060Z,100758.28
2023-04-10T21:20:23.541Z,100747.13
2023-04-10T21:22:50.556Z,100737.09
2023-04-10T21:25:19.072Z,100747.13
2023-04-10T21:27:46.272Z,100747.13
2023-04-10T21:30:13.542Z,100740.41
2023-04-10T21:32:40.730Z,100734.56
2023-04-10T21:35:08.674Z,100731.78
2023-04-10T21:37:35.657Z,100729.28
2023-04-10T21:40:02.680Z,100734.84
2023-04-10T21:42:29.892Z,100742.41
2023-04-10T21:44:59.049Z,100735.69
2023-04-10T21:47:26.010Z,100734.59
2023-04-10T21:49:52.939Z,100737.13
2023-04-10T21:52:19.970Z,100728.75
2023-04-10T21:54:46.889Z,100729.34
2023-04-10T21:57:13.854Z,100730.69
2023-04-10T21:59:40.804Z,100739.66
2023-04-10T22:02:07.916Z,100748.88
2023-04-10T22:04:38.919Z,100772.84
2023-04-10T22:07:12.527Z,100778.72
2023-04-10T22:09:39.499Z,100780.09
2023-04-10T22:12:06.631Z,100778.72
2023-04-10T22:14:33.645Z,100783.16
2023-04-10T22:17:00.940Z,100780.13
2023-04-10T22:19:27.946Z,100781.78
2023-04-10T22:21:54.903Z,100787.38
2023-04-10T22:24:21.919Z,100786.81
2023-04-10T22:26:48.845Z,100790.16
2023-04-10T22:29:16.641Z,100794.91
2023-04-10T22:31:44.647Z,100799.38
2023-04-10T22:34:11.818Z,100808.31
2023-04-10T22:36:38.764Z,100809.13
2023-04-10T22:39:05.749Z,100811.91
2023-04-10T22:41:32.952Z,100818.66
2023-04-10T22:44:00.050Z,100832.03
2023-04-10T22:46:27.145Z,100834.25
2023-04-10T22:48:55.033Z,100836.22
2023-04-10T22:51:22.162Z,100835.38
2023-04-10T22:53:49.093Z,100821.16
2023-04-10T22:56:16.130Z,100828.97
2023-04-10T22:58:43.120Z,100835.66
2023-04-10T23:01:10.257Z,100823.94
2023-04-10T23:03:37.356Z,100837.88
2023-04-10T23:06:04.534Z,100840.41
2023-04-10T23:08:31.476Z,100833.16
2023-04-10T23:10:58.542Z,100836.25
2023-04-10T23:13:25.974Z,100841.50
2023-04-10T23:15:53.461Z,100840.69
2023-04-10T23:18:20.718Z,100846.56
2023-04-10T23:20:48.129Z,100852.13
2023-04-10T23:23:15.393Z,100846.56
2023-04-10T23:25:42.667Z,100856.03
2023-04-10T23:28:09.628Z,100862.75
2023-04-10T23:30:36.753Z,100859.66
2023-04-10T23:33:03.760Z,100858.56
2023-04-10T23:35:30.716Z,100866.09
2023-04-10T23:37:58.122Z,100866.94
2023-04-10T23:40:25.082Z,100859.66
2023-04-10T23:42:52.139Z,100854.94
2023-04-10T23:45:19.064Z,100854.38
2023-04-10T23:47:46.039Z,100849.91
2023-04-10T23:50:13.066Z,100847.97
2023-04-10T23:52:40.049Z,100843.22
2023-04-10T23:55:07.209Z,100850.47
2023-04-10T23:57:34.111Z,100851.31
